sensor_id;sensor_type;location;lat;lon;timestamp;P1;durP1;ratioP1;P2;durP2;ratioP2
20830;SDS011;10576;53.556;9.868;2022-09-09T00:04:29;41.50;;;29.08;;
20830;SDS011;10576;53.556;9.868;2022-09-09T00:09:45;40.90;;;29.42;;
20830;SDS011;10576;53.556;9.868;2022-09-09T00:15:25;39.95;;;28.42;;
20830;SDS011;10576;53.556;9.868;2022-09-09T00:23:44;68.82;;;31.75;;
20830;SDS011;10576;53.556;9.868;2022-09-09T00:31:30;43.95;;;30.15;;
20830;SDS011;10576;53.556;9.868;2022-09-09T00:34:09;43.13;;;29.83;;
20830;SDS011;10576;53.556;9.868;2022-09-09T00:36:37;49.78;;;29.25;;
20830;SDS011;10576;53.556;9.868;2022-09-09T00:39:04;40.03;;;29.23;;
20830;SDS011;10576;53.556;9.868;2022-09-09T00:44:31;39.22;;;30.27;;
20830;SDS011;10576;53.556;9.868;2022-09-09T00:50:06;39.88;;;28.90;;
20830;SDS011;10576;53.556;9.868;2022-09-09T00:57:54;38.83;;;27.80;;
20830;SDS011;10576;53.556;9.868;2022-09-09T01:05:19;47.47;;;29.70;;
20830;SDS011;10576;53.556;9.868;2022-09-09T01:07:52;40.90;;;28.63;;
20830;SDS011;10576;53.556;9.868;2022-09-09T01:10:53;35.30;;;26.83;;
20830;SDS011;10576;53.556;9.868;2022-09-09T01:13:13;37.25;;;27.30;;
20830;SDS011;10576;53.556;9.868;2022-09-09T01:15:46;31.92;;;26.48;;
20830;SDS011;10576;53.556;9.868;2022-09-09T01:18:14;31.92;;;26.02;;
20830;SDS011;10576;53.556;9.868;2022-09-09T01:26:29;30.93;;;24.83;;
20830;SDS011;10576;53.556;9.868;2022-09-09T01:28:59;29.20;;;24.50;;
20830;SDS011;10576;53.556;9.868;2022-09-09T01:34:25;30.65;;;24.80;;
20830;SDS011;10576;53.556;9.868;2022-09-09T01:36:59;37.25;;;25.10;;
20830;SDS011;10576;53.556;9.868;2022-09-09T01:39:30;30.33;;;23.90;;
20830;SDS011;10576;53.556;9.868;2022-09-09T01:41:57;32.30;;;24.30;;
20830;SDS011;10576;53.556;9.868;2022-09-09T01:44:23;30.63;;;23.83;;
20830;SDS011;10576;53.556;9.868;2022-09-09T01:46:50;28.83;;;23.02;;
20830;SDS011;10576;53.556;9.868;2022-09-09T01:49:16;26.35;;;22.00;;
20830;SDS011;10576;53.556;9.868;2022-09-09T01:51:43;25.63;;;21.05;;
20830;SDS011;10576;53.556;9.868;2022-09-09T01:54:11;27.45;;;22.65;;
20830;SDS011;10576;53.556;9.868;2022-09-09T02:04:45;25.43;;;21.83;;
20830;SDS011;10576;53.556;9.868;2022-09-09T02:10:17;24.42;;;19.70;;
20830;SDS011;10576;53.556;9.868;2022-09-09T02:12:48;23.17;;;20.03;;
20830;SDS011;10576;53.556;9.868;2022-09-09T02:15:28;24.77;;;20.17;;
20830;SDS011;10576;53.556;9.868;2022-09-09T02:18:03;23.67;;;20.57;;
20830;SDS011;10576;53.556;9.868;2022-09-09T02:20:33;24.60;;;20.08;;
20830;SDS011;10576;53.556;9.868;2022-09-09T02:23:01;23.70;;;20.25;;
20830;SDS011;10576;53.556;9.868;2022-09-09T02:25:29;22.80;;;20.30;;
20830;SDS011;10576;53.556;9.868;2022-09-09T02:27:54;24.23;;;19.83;;
20830;SDS011;10576;53.556;9.868;2022-09-09T02:30:23;24.95;;;19.55;;
20830;SDS011;10576;53.556;9.868;2022-09-09T02:32:48;23.40;;;19.93;;
20830;SDS011;10576;53.556;9.868;2022-09-09T02:35:19;23.57;;;19.30;;
20830;SDS011;10576;53.556;9.868;2022-09-09T02:37:49;22.70;;;19.20;;
20830;SDS011;10576;53.556;9.868;2022-09-09T02:40:16;25.60;;;19.85;;
20830;SDS011;10576;53.556;9.868;2022-09-09T02:42:43;21.50;;;19.10;;
20830;SDS011;10576;53.556;9.868;2022-09-09T02:45:11;22.50;;;20.08;;
20830;SDS011;10576;53.556;9.868;2022-09-09T02:50:39;21.52;;;19.20;;
20830;SDS011;10576;53.556;9.868;2022-09-09T02:55:57;22.95;;;19.17;;
20830;SDS011;10576;53.556;9.868;2022-09-09T02:58:29;21.58;;;18.52;;
20830;SDS011;10576;53.556;9.868;2022-09-09T03:00:55;20.95;;;18.67;;
20830;SDS011;10576;53.556;9.868;2022-09-09T03:03:22;27.03;;;19.83;;
20830;SDS011;10576;53.556;9.868;2022-09-09T03:05:49;23.10;;;18.65;;
20830;SDS011;10576;53.556;9.868;2022-09-09T03:08:15;23.07;;;18.30;;
20830;SDS011;10576;53.556;9.868;2022-09-09T03:10:41;21.42;;;19.13;;
20830;SDS011;10576;53.556;9.868;2022-09-09T03:13:07;21.08;;;18.77;;
20830;SDS011;10576;53.556;9.868;2022-09-09T03:15:33;20.90;;;17.90;;
20830;SDS011;10576;53.556;9.868;2022-09-09T03:17:59;23.60;;;18.77;;
20830;SDS011;10576;53.556;9.868;2022-09-09T03:20:25;22.63;;;18.80;;
20830;SDS011;10576;53.556;9.868;2022-09-09T03:22:53;20.57;;;18.23;;
20830;SDS011;10576;53.556;9.868;2022-09-09T03:25:19;22.55;;;18.25;;
20830;SDS011;10576;53.556;9.868;2022-09-09T03:27:46;21.63;;;17.67;;
20830;SDS011;10576;53.556;9.868;2022-09-09T03:30:11;21.93;;;18.20;;
20830;SDS011;10576;53.556;9.868;2022-09-09T03:32:37;20.00;;;17.57;;
20830;SDS011;10576;53.556;9.868;2022-09-09T03:35:03;19.13;;;16.97;;
20830;SDS011;10576;53.556;9.868;2022-09-09T03:37:29;20.38;;;17.23;;
20830;SDS011;10576;53.556;9.868;2022-09-09T03:39:54;20.02;;;16.77;;
20830;SDS011;10576;53.556;9.868;2022-09-09T03:42:20;18.92;;;16.92;;
20830;SDS011;10576;53.556;9.868;2022-09-09T03:44:47;20.88;;;17.40;;
20830;SDS011;10576;53.556;9.868;2022-09-09T03:47:19;21.63;;;17.35;;
20830;SDS011;10576;53.556;9.868;2022-09-09T03:49:46;19.02;;;17.13;;
20830;SDS011;10576;53.556;9.868;2022-09-09T03:52:13;20.05;;;16.42;;
20830;SDS011;10576;53.556;9.868;2022-09-09T03:54:39;18.07;;;16.17;;
20830;SDS011;10576;53.556;9.868;2022-09-09T03:57:06;20.17;;;16.60;;
20830;SDS011;10576;53.556;9.868;2022-09-09T03:59:32;19.02;;;16.92;;
20830;SDS011;10576;53.556;9.868;2022-09-09T04:01:57;20.42;;;16.90;;
20830;SDS011;10576;53.556;9.868;2022-09-09T04:04:24;21.15;;;16.88;;
20830;SDS011;10576;53.556;9.868;2022-09-09T04:06:51;17.95;;;15.98;;
20830;SDS011;10576;53.556;9.868;2022-09-09T04:09:17;18.17;;;16.20;;
20830;SDS011;10576;53.556;9.868;2022-09-09T04:11:43;17.75;;;15.85;;
20830;SDS011;10576;53.556;9.868;2022-09-09T04:14:08;19.23;;;15.68;;
20830;SDS011;10576;53.556;9.868;2022-09-09T04:16:34;18.30;;;15.73;;
20830;SDS011;10576;53.556;9.868;2022-09-09T04:19:02;18.30;;;15.15;;
20830;SDS011;10576;53.556;9.868;2022-09-09T04:21:29;17.10;;;15.38;;
20830;SDS011;10576;53.556;9.868;2022-09-09T04:23:55;17.98;;;15.20;;
20830;SDS011;10576;53.556;9.868;2022-09-09T04:26:21;16.92;;;15.13;;
20830;SDS011;10576;53.556;9.868;2022-09-09T04:28:47;16.87;;;14.30;;
20830;SDS011;10576;53.556;9.868;2022-09-09T04:31:20;16.83;;;15.07;;
20830;SDS011;10576;53.556;9.868;2022-09-09T04:33:48;16.85;;;14.93;;
20830;SDS011;10576;53.556;9.868;2022-09-09T04:36:15;16.45;;;14.60;;
20830;SDS011;10576;53.556;9.868;2022-09-09T04:38:41;16.10;;;14.40;;
20830;SDS011;10576;53.556;9.868;2022-09-09T04:41:06;18.27;;;13.83;;
20830;SDS011;10576;53.556;9.868;2022-09-09T04:43:32;15.67;;;14.13;;
20830;SDS011;10576;53.556;9.868;2022-09-09T04:45:59;14.70;;;13.10;;
20830;SDS011;10576;53.556;9.868;2022-09-09T04:48:25;16.90;;;14.43;;
20830;SDS011;10576;53.556;9.868;2022-09-09T04:50:54;17.65;;;13.80;;
20830;SDS011;10576;53.556;9.868;2022-09-09T04:53:24;17.77;;;13.98;;
20830;SDS011;10576;53.556;9.868;2022-09-09T04:55:51;14.93;;;13.52;;
20830;SDS011;10576;53.556;9.868;2022-09-09T04:58:18;16.77;;;14.98;;
20830;SDS011;10576;53.556;9.868;2022-09-09T05:00:46;16.05;;;14.27;;
20830;SDS011;10576;53.556;9.868;2022-09-09T05:03:12;16.10;;;14.13;;
20830;SDS011;10576;53.556;9.868;2022-09-09T05:05:37;15.60;;;14.02;;
20830;SDS011;10576;53.556;9.868;2022-09-09T05:08:04;17.20;;;13.80;;
20830;SDS011;10576;53.556;9.868;2022-09-09T05:10:31;17.50;;;13.85;;
20830;SDS011;10576;53.556;9.868;2022-09-09T05:12:57;14.98;;;13.38;;
20830;SDS011;10576;53.556;9.868;2022-09-09T05:15:23;14.73;;;13.18;;
20830;SDS011;10576;53.556;9.868;2022-09-09T05:17:49;15.63;;;12.97;;
20830;SDS011;10576;53.556;9.868;2022-09-09T05:20:17;16.25;;;13.35;;
20830;SDS011;10576;53.556;9.868;2022-09-09T05:22:43;15.75;;;13.45;;
20830;SDS011;10576;53.556;9.868;2022-09-09T05:25:09;15.90;;;13.00;;
20830;SDS011;10576;53.556;9.868;2022-09-09T05:27:35;15.18;;;12.32;;
20830;SDS011;10576;53.556;9.868;2022-09-09T05:30:00;14.27;;;12.20;;
20830;SDS011;10576;53.556;9.868;2022-09-09T05:32:26;15.60;;;12.30;;
20830;SDS011;10576;53.556;9.868;2022-09-09T05:34:52;12.80;;;11.50;;
20830;SDS011;10576;53.556;9.868;2022-09-09T05:37:18;13.50;;;11.20;;
20830;SDS011;10576;53.556;9.868;2022-09-09T05:39:44;14.35;;;12.35;;
20830;SDS011;10576;53.556;9.868;2022-09-09T05:42:09;12.82;;;11.63;;
20830;SDS011;10576;53.556;9.868;2022-09-09T05:44:35;13.60;;;11.35;;
20830;SDS011;10576;53.556;9.868;2022-09-09T05:47:02;13.23;;;11.20;;
20830;SDS011;10576;53.556;9.868;2022-09-09T05:49:28;12.80;;;11.13;;
20830;SDS011;10576;53.556;9.868;2022-09-09T05:51:53;13.52;;;10.77;;
20830;SDS011;10576;53.556;9.868;2022-09-09T05:54:19;12.05;;;10.43;;
20830;SDS011;10576;53.556;9.868;2022-09-09T05:56:45;13.18;;;10.30;;
20830;SDS011;10576;53.556;9.868;2022-09-09T05:59:11;10.98;;;9.82;;
20830;SDS011;10576;53.556;9.868;2022-09-09T06:01:37;10.70;;;9.70;;
20830;SDS011;10576;53.556;9.868;2022-09-09T06:04:05;10.90;;;9.80;;
20830;SDS011;10576;53.556;9.868;2022-09-09T06:06:32;11.93;;;9.63;;
20830;SDS011;10576;53.556;9.868;2022-09-09T06:09:03;11.30;;;8.95;;
20830;SDS011;10576;53.556;9.868;2022-09-09T06:11:34;10.97;;;9.07;;
20830;SDS011;10576;53.556;9.868;2022-09-09T06:14:01;12.13;;;8.80;;
20830;SDS011;10576;53.556;9.868;2022-09-09T06:16:27;9.27;;;7.90;;
20830;SDS011;10576;53.556;9.868;2022-09-09T06:18:54;11.10;;;8.40;;
20830;SDS011;10576;53.556;9.868;2022-09-09T06:21:28;9.13;;;8.17;;
20830;SDS011;10576;53.556;9.868;2022-09-09T06:23:55;9.52;;;8.07;;
20830;SDS011;10576;53.556;9.868;2022-09-09T06:26:23;11.65;;;7.35;;
20830;SDS011;10576;53.556;9.868;2022-09-09T06:28:53;10.57;;;7.13;;
20830;SDS011;10576;53.556;9.868;2022-09-09T06:31:20;10.20;;;7.03;;
20830;SDS011;10576;53.556;9.868;2022-09-09T06:33:48;10.35;;;6.97;;
20830;SDS011;10576;53.556;9.868;2022-09-09T06:36:17;7.68;;;6.97;;
20830;SDS011;10576;53.556;9.868;2022-09-09T06:38:44;8.47;;;6.90;;
20830;SDS011;10576;53.556;9.868;2022-09-09T06:41:11;11.23;;;7.03;;
20830;SDS011;10576;53.556;9.868;2022-09-09T06:43:39;11.02;;;7.28;;
20830;SDS011;10576;53.556;9.868;2022-09-09T06:46:09;8.53;;;6.90;;
20830;SDS011;10576;53.556;9.868;2022-09-09T06:48:47;9.70;;;7.20;;
20830;SDS011;10576;53.556;9.868;2022-09-09T06:51:16;10.05;;;6.70;;
20830;SDS011;10576;53.556;9.868;2022-09-09T06:53:44;9.90;;;6.70;;
20830;SDS011;10576;53.556;9.868;2022-09-09T06:58:39;7.33;;;6.13;;
20830;SDS011;10576;53.556;9.868;2022-09-09T07:01:09;7.30;;;6.13;;
20830;SDS011;10576;53.556;9.868;2022-09-09T07:03:37;7.53;;;6.00;;
20830;SDS011;10576;53.556;9.868;2022-09-09T07:06:08;9.68;;;6.20;;
20830;SDS011;10576;53.556;9.868;2022-09-09T07:08:39;9.18;;;6.05;;
20830;SDS011;10576;53.556;9.868;2022-09-09T07:11:07;8.32;;;6.18;;
20830;SDS011;10576;53.556;9.868;2022-09-09T07:13:33;9.20;;;6.00;;
20830;SDS011;10576;53.556;9.868;2022-09-09T07:16:03;5.93;;;5.30;;
20830;SDS011;10576;53.556;9.868;2022-09-09T07:18:30;8.68;;;5.50;;
20830;SDS011;10576;53.556;9.868;2022-09-09T07:20:56;7.32;;;5.70;;
20830;SDS011;10576;53.556;9.868;2022-09-09T07:23:22;7.53;;;5.43;;
20830;SDS011;10576;53.556;9.868;2022-09-09T07:25:49;6.80;;;5.70;;
20830;SDS011;10576;53.556;9.868;2022-09-09T07:28:15;6.20;;;5.50;;
20830;SDS011;10576;53.556;9.868;2022-09-09T07:30:42;7.45;;;5.78;;
20830;SDS011;10576;53.556;9.868;2022-09-09T07:33:08;8.15;;;5.35;;
20830;SDS011;10576;53.556;9.868;2022-09-09T07:35:37;5.82;;;5.22;;
20830;SDS011;10576;53.556;9.868;2022-09-09T07:38:03;7.00;;;5.30;;
20830;SDS011;10576;53.556;9.868;2022-09-09T07:40:32;6.30;;;5.07;;
20830;SDS011;10576;53.556;9.868;2022-09-09T07:42:59;7.03;;;5.40;;
20830;SDS011;10576;53.556;9.868;2022-09-09T07:45:24;6.90;;;5.50;;
20830;SDS011;10576;53.556;9.868;2022-09-09T07:47:53;6.63;;;5.18;;
20830;SDS011;10576;53.556;9.868;2022-09-09T07:50:19;6.45;;;5.00;;
20830;SDS011;10576;53.556;9.868;2022-09-09T07:52:44;6.72;;;6.00;;
20830;SDS011;10576;53.556;9.868;2022-09-09T07:55:10;6.07;;;4.90;;
20830;SDS011;10576;53.556;9.868;2022-09-09T07:57:36;5.85;;;4.90;;
20830;SDS011;10576;53.556;9.868;2022-09-09T08:00:03;7.50;;;5.15;;
20830;SDS011;10576;53.556;9.868;2022-09-09T08:02:29;9.15;;;5.50;;
20830;SDS011;10576;53.556;9.868;2022-09-09T08:04:55;7.60;;;5.38;;
20830;SDS011;10576;53.556;9.868;2022-09-09T08:07:21;7.38;;;5.10;;
20830;SDS011;10576;53.556;9.868;2022-09-09T08:09:48;7.13;;;5.60;;
20830;SDS011;10576;53.556;9.868;2022-09-09T08:12:14;5.80;;;5.20;;
20830;SDS011;10576;53.556;9.868;2022-09-09T08:14:40;6.20;;;5.60;;
20830;SDS011;10576;53.556;9.868;2022-09-09T08:17:06;7.87;;;5.20;;
20830;SDS011;10576;53.556;9.868;2022-09-09T08:19:32;6.67;;;4.30;;
20830;SDS011;10576;53.556;9.868;2022-09-09T08:22:01;7.00;;;4.50;;
20830;SDS011;10576;53.556;9.868;2022-09-09T08:24:28;6.13;;;4.78;;
20830;SDS011;10576;53.556;9.868;2022-09-09T08:26:53;6.90;;;4.63;;
20830;SDS011;10576;53.556;9.868;2022-09-09T08:31:50;6.18;;;4.43;;
20830;SDS011;10576;53.556;9.868;2022-09-09T08:34:19;5.57;;;4.43;;
20830;SDS011;10576;53.556;9.868;2022-09-09T08:36:46;6.30;;;4.38;;
20830;SDS011;10576;53.556;9.868;2022-09-09T08:39:13;6.10;;;3.93;;
20830;SDS011;10576;53.556;9.868;2022-09-09T08:52:28;6.23;;;4.10;;
20830;SDS011;10576;53.556;9.868;2022-09-09T08:57:51;6.15;;;3.72;;
20830;SDS011;10576;53.556;9.868;2022-09-09T09:00:19;6.40;;;3.78;;
20830;SDS011;10576;53.556;9.868;2022-09-09T09:11:03;5.03;;;3.35;;
20830;SDS011;10576;53.556;9.868;2022-09-09T09:16:32;5.83;;;2.90;;
20830;SDS011;10576;53.556;9.868;2022-09-09T09:19:03;3.42;;;3.00;;
20830;SDS011;10576;53.556;9.868;2022-09-09T09:21:43;3.55;;;2.80;;
20830;SDS011;10576;53.556;9.868;2022-09-09T09:24:19;3.45;;;2.53;;
20830;SDS011;10576;53.556;9.868;2022-09-09T09:26:48;5.85;;;2.50;;
20830;SDS011;10576;53.556;9.868;2022-09-09T09:29:18;2.75;;;2.00;;
20830;SDS011;10576;53.556;9.868;2022-09-09T09:31:56;2.40;;;2.10;;
20830;SDS011;10576;53.556;9.868;2022-09-09T09:34:27;2.80;;;1.90;;
20830;SDS011;10576;53.556;9.868;2022-09-09T09:36:54;2.40;;;2.20;;
20830;SDS011;10576;53.556;9.868;2022-09-09T09:39:26;2.97;;;2.15;;
20830;SDS011;10576;53.556;9.868;2022-09-09T09:42:09;2.88;;;1.80;;
20830;SDS011;10576;53.556;9.868;2022-09-09T09:44:39;2.20;;;1.60;;
20830;SDS011;10576;53.556;9.868;2022-09-09T09:47:14;3.50;;;1.73;;
20830;SDS011;10576;53.556;9.868;2022-09-09T09:49:54;4.18;;;1.98;;
20830;SDS011;10576;53.556;9.868;2022-09-09T09:52:24;5.22;;;1.90;;
20830;SDS011;10576;53.556;9.868;2022-09-09T09:54:55;2.78;;;1.75;;
20830;SDS011;10576;53.556;9.868;2022-09-09T09:57:23;2.53;;;1.92;;
20830;SDS011;10576;53.556;9.868;2022-09-09T10:02:38;3.13;;;2.10;;
20830;SDS011;10576;53.556;9.868;2022-09-09T10:07:45;4.00;;;1.70;;
20830;SDS011;10576;53.556;9.868;2022-09-09T10:10:13;2.15;;;1.58;;
20830;SDS011;10576;53.556;9.868;2022-09-09T10:18:21;1.83;;;1.42;;
20830;SDS011;10576;53.556;9.868;2022-09-09T10:29:17;1.95;;;1.38;;
20830;SDS011;10576;53.556;9.868;2022-09-09T10:34:58;2.78;;;1.10;;
20830;SDS011;10576;53.556;9.868;2022-09-09T10:57:04;2.30;;;1.27;;
20830;SDS011;10576;53.556;9.868;2022-09-09T10:59:52;2.78;;;1.33;;
20830;SDS011;10576;53.556;9.868;2022-09-09T11:02:31;2.30;;;1.30;;
20830;SDS011;10576;53.556;9.868;2022-09-09T11:08:02;2.72;;;1.40;;
20830;SDS011;10576;53.556;9.868;2022-09-09T11:18:36;2.00;;;1.60;;
20830;SDS011;10576;53.556;9.868;2022-09-09T11:21:07;2.85;;;1.73;;
20830;SDS011;10576;53.556;9.868;2022-09-09T11:23:43;2.92;;;1.80;;
20830;SDS011;10576;53.556;9.868;2022-09-09T11:26:16;2.47;;;1.67;;
20830;SDS011;10576;53.556;9.868;2022-09-09T11:38:14;3.75;;;1.65;;
20830;SDS011;10576;53.556;9.868;2022-09-09T11:40:23;3.03;;;1.70;;
20830;SDS011;10576;53.556;9.868;2022-09-09T11:43:00;2.40;;;1.77;;
20830;SDS011;10576;53.556;9.868;2022-09-09T11:45:38;3.42;;;1.90;;
20830;SDS011;10576;53.556;9.868;2022-09-09T11:51:10;3.10;;;1.60;;
20830;SDS011;10576;53.556;9.868;2022-09-09T11:56:43;3.03;;;1.80;;
20830;SDS011;10576;53.556;9.868;2022-09-09T11:59:19;4.45;;;1.67;;
20830;SDS011;10576;53.556;9.868;2022-09-09T12:04:46;3.42;;;1.70;;
20830;SDS011;10576;53.556;9.868;2022-09-09T12:07:31;3.07;;;1.50;;
20830;SDS011;10576;53.556;9.868;2022-09-09T12:12:45;5.38;;;1.88;;
20830;SDS011;10576;53.556;9.868;2022-09-09T12:17:58;2.95;;;1.50;;
20830;SDS011;10576;53.556;9.868;2022-09-09T12:23:09;2.97;;;1.65;;
20830;SDS011;10576;53.556;9.868;2022-09-09T12:29:03;3.58;;;1.60;;
20830;SDS011;10576;53.556;9.868;2022-09-09T12:37:05;3.30;;;1.55;;
20830;SDS011;10576;53.556;9.868;2022-09-09T12:39:56;4.43;;;1.67;;
20830;SDS011;10576;53.556;9.868;2022-09-09T12:42:24;4.17;;;1.83;;
20830;SDS011;10576;53.556;9.868;2022-09-09T12:44:58;3.90;;;1.80;;
20830;SDS011;10576;53.556;9.868;2022-09-09T12:47:41;3.10;;;1.80;;
20830;SDS011;10576;53.556;9.868;2022-09-09T12:50:27;3.13;;;1.83;;
20830;SDS011;10576;53.556;9.868;2022-09-09T12:53:01;3.05;;;1.90;;
20830;SDS011;10576;53.556;9.868;2022-09-09T12:56:09;4.20;;;2.13;;
20830;SDS011;10576;53.556;9.868;2022-09-09T12:58:45;4.93;;;1.90;;
20830;SDS011;10576;53.556;9.868;2022-09-09T13:01:54;3.87;;;1.90;;
20830;SDS011;10576;53.556;9.868;2022-09-09T13:04:16;2.65;;;1.80;;
20830;SDS011;10576;53.556;9.868;2022-09-09T13:06:45;3.80;;;2.20;;
20830;SDS011;10576;53.556;9.868;2022-09-09T13:09:11;4.18;;;2.22;;
20830;SDS011;10576;53.556;9.868;2022-09-09T13:11:41;4.10;;;2.22;;
20830;SDS011;10576;53.556;9.868;2022-09-09T13:14:15;4.53;;;2.20;;
20830;SDS011;10576;53.556;9.868;2022-09-09T13:16:54;3.28;;;2.42;;
20830;SDS011;10576;53.556;9.868;2022-09-09T13:19:21;4.22;;;2.00;;
20830;SDS011;10576;53.556;9.868;2022-09-09T13:21:47;1.55;;;1.33;;
20830;SDS011;10576;53.556;9.868;2022-09-09T13:24:27;1.40;;;0.93;;
20830;SDS011;10576;53.556;9.868;2022-09-09T13:27:01;2.30;;;0.70;;
20830;SDS011;10576;53.556;9.868;2022-09-09T13:29:52;1.65;;;0.90;;
20830;SDS011;10576;53.556;9.868;2022-09-09T13:32:22;1.67;;;1.20;;
20830;SDS011;10576;53.556;9.868;2022-09-09T13:39:59;2.20;;;1.38;;
20830;SDS011;10576;53.556;9.868;2022-09-09T13:42:29;2.85;;;1.45;;
20830;SDS011;10576;53.556;9.868;2022-09-09T13:44:57;4.95;;;1.20;;
20830;SDS011;10576;53.556;9.868;2022-09-09T13:47:32;1.33;;;1.23;;
20830;SDS011;10576;53.556;9.868;2022-09-09T13:52:56;4.10;;;1.70;;
20830;SDS011;10576;53.556;9.868;2022-09-09T13:55:24;6.28;;;1.80;;
20830;SDS011;10576;53.556;9.868;2022-09-09T13:57:56;3.53;;;1.90;;
20830;SDS011;10576;53.556;9.868;2022-09-09T14:00:26;4.17;;;2.27;;
20830;SDS011;10576;53.556;9.868;2022-09-09T14:02:54;2.95;;;2.00;;
20830;SDS011;10576;53.556;9.868;2022-09-09T14:05:20;2.85;;;2.17;;
20830;SDS011;10576;53.556;9.868;2022-09-09T14:07:47;2.22;;;1.95;;
20830;SDS011;10576;53.556;9.868;2022-09-09T14:10:13;4.47;;;2.20;;
20830;SDS011;10576;53.556;9.868;2022-09-09T14:12:39;3.85;;;2.30;;
20830;SDS011;10576;53.556;9.868;2022-09-09T14:15:06;3.40;;;2.40;;
20830;SDS011;10576;53.556;9.868;2022-09-09T14:17:32;2.80;;;2.40;;
20830;SDS011;10576;53.556;9.868;2022-09-09T14:19:58;4.57;;;2.40;;
20830;SDS011;10576;53.556;9.868;2022-09-09T14:22:25;4.30;;;2.55;;
20830;SDS011;10576;53.556;9.868;2022-09-09T14:24:50;4.80;;;2.40;;
20830;SDS011;10576;53.556;9.868;2022-09-09T14:27:16;4.17;;;2.50;;
20830;SDS011;10576;53.556;9.868;2022-09-09T14:32:14;6.20;;;3.50;;
20830;SDS011;10576;53.556;9.868;2022-09-09T14:34:40;5.13;;;3.83;;
20830;SDS011;10576;53.556;9.868;2022-09-09T14:37:06;5.60;;;4.40;;
20830;SDS011;10576;53.556;9.868;2022-09-09T14:39:31;5.67;;;4.33;;
20830;SDS011;10576;53.556;9.868;2022-09-09T14:41:57;5.07;;;4.50;;
20830;SDS011;10576;53.556;9.868;2022-09-09T14:44:23;4.68;;;4.13;;
20830;SDS011;10576;53.556;9.868;2022-09-09T14:46:48;5.90;;;3.90;;
20830;SDS011;10576;53.556;9.868;2022-09-09T14:49:15;3.88;;;3.53;;
20830;SDS011;10576;53.556;9.868;2022-09-09T14:51:41;4.55;;;3.17;;
20830;SDS011;10576;53.556;9.868;2022-09-09T14:54:07;3.75;;;3.00;;
20830;SDS011;10576;53.556;9.868;2022-09-09T14:56:33;5.20;;;2.47;;
20830;SDS011;10576;53.556;9.868;2022-09-09T14:59:02;3.33;;;2.20;;
20830;SDS011;10576;53.556;9.868;2022-09-09T15:01:28;4.00;;;2.08;;
20830;SDS011;10576;53.556;9.868;2022-09-09T15:03:56;3.78;;;2.03;;
20830;SDS011;10576;53.556;9.868;2022-09-09T15:06:27;3.38;;;2.13;;
20830;SDS011;10576;53.556;9.868;2022-09-09T15:08:54;4.03;;;2.20;;
20830;SDS011;10576;53.556;9.868;2022-09-09T15:11:25;2.75;;;2.10;;
20830;SDS011;10576;53.556;9.868;2022-09-09T15:13:52;3.42;;;2.20;;
20830;SDS011;10576;53.556;9.868;2022-09-09T15:16:20;3.00;;;2.10;;
20830;SDS011;10576;53.556;9.868;2022-09-09T15:18:50;3.40;;;2.40;;
20830;SDS011;10576;53.556;9.868;2022-09-09T15:21:19;2.75;;;2.20;;
20830;SDS011;10576;53.556;9.868;2022-09-09T15:23:46;7.03;;;2.80;;
20830;SDS011;10576;53.556;9.868;2022-09-09T15:26:13;3.13;;;2.42;;
20830;SDS011;10576;53.556;9.868;2022-09-09T15:28:40;6.15;;;2.63;;
20830;SDS011;10576;53.556;9.868;2022-09-09T15:31:15;5.15;;;3.10;;
20830;SDS011;10576;53.556;9.868;2022-09-09T15:33:52;3.67;;;2.92;;
20830;SDS011;10576;53.556;9.868;2022-09-09T15:36:25;3.33;;;2.83;;
20830;SDS011;10576;53.556;9.868;2022-09-09T15:38:53;3.15;;;2.80;;
20830;SDS011;10576;53.556;9.868;2022-09-09T15:41:20;3.53;;;2.73;;
20830;SDS011;10576;53.556;9.868;2022-09-09T15:43:53;4.22;;;2.90;;
20830;SDS011;10576;53.556;9.868;2022-09-09T15:49:19;3.90;;;2.60;;
20830;SDS011;10576;53.556;9.868;2022-09-09T15:51:45;6.13;;;2.97;;
20830;SDS011;10576;53.556;9.868;2022-09-09T15:54:16;4.10;;;2.70;;
20830;SDS011;10576;53.556;9.868;2022-09-09T15:56:43;3.30;;;2.88;;
20830;SDS011;10576;53.556;9.868;2022-09-09T15:59:11;4.50;;;2.90;;
20830;SDS011;10576;53.556;9.868;2022-09-09T16:01:37;3.97;;;2.83;;
20830;SDS011;10576;53.556;9.868;2022-09-09T16:04:04;2.40;;;2.20;;
20830;SDS011;10576;53.556;9.868;2022-09-09T16:06:31;3.58;;;2.42;;
20830;SDS011;10576;53.556;9.868;2022-09-09T16:08:58;2.17;;;1.95;;
20830;SDS011;10576;53.556;9.868;2022-09-09T16:11:27;9.68;;;2.40;;
20830;SDS011;10576;53.556;9.868;2022-09-09T16:13:55;4.25;;;2.00;;
20830;SDS011;10576;53.556;9.868;2022-09-09T16:16:24;2.88;;;1.70;;
20830;SDS011;10576;53.556;9.868;2022-09-09T16:18:52;4.00;;;1.73;;
20830;SDS011;10576;53.556;9.868;2022-09-09T16:21:26;2.17;;;1.60;;
20830;SDS011;10576;53.556;9.868;2022-09-09T16:23:57;2.20;;;1.77;;
20830;SDS011;10576;53.556;9.868;2022-09-09T16:26:25;2.75;;;1.60;;
20830;SDS011;10576;53.556;9.868;2022-09-09T16:28:52;1.73;;;1.58;;
20830;SDS011;10576;53.556;9.868;2022-09-09T16:31:19;3.17;;;1.70;;
20830;SDS011;10576;53.556;9.868;2022-09-09T16:33:47;3.45;;;1.70;;
20830;SDS011;10576;53.556;9.868;2022-09-09T16:36:14;2.43;;;1.80;;
20830;SDS011;10576;53.556;9.868;2022-09-09T16:38:41;2.92;;;2.20;;
20830;SDS011;10576;53.556;9.868;2022-09-09T16:41:11;2.97;;;2.05;;
20830;SDS011;10576;53.556;9.868;2022-09-09T16:43:38;2.67;;;2.08;;
20830;SDS011;10576;53.556;9.868;2022-09-09T16:46:14;3.38;;;2.22;;
20830;SDS011;10576;53.556;9.868;2022-09-09T16:48:44;3.70;;;2.40;;
20830;SDS011;10576;53.556;9.868;2022-09-09T16:51:13;3.05;;;2.33;;
20830;SDS011;10576;53.556;9.868;2022-09-09T16:53:41;3.95;;;2.63;;
20830;SDS011;10576;53.556;9.868;2022-09-09T16:56:11;4.80;;;2.53;;
20830;SDS011;10576;53.556;9.868;2022-09-09T16:58:40;3.15;;;2.10;;
20830;SDS011;10576;53.556;9.868;2022-09-09T17:01:08;2.25;;;2.00;;
20830;SDS011;10576;53.556;9.868;2022-09-09T17:03:35;3.83;;;1.98;;
20830;SDS011;10576;53.556;9.868;2022-09-09T17:06:01;2.45;;;1.70;;
20830;SDS011;10576;53.556;9.868;2022-09-09T17:08:31;3.70;;;1.73;;
20830;SDS011;10576;53.556;9.868;2022-09-09T17:10:58;2.17;;;1.80;;
20830;SDS011;10576;53.556;9.868;2022-09-09T17:13:24;2.70;;;1.85;;
20830;SDS011;10576;53.556;9.868;2022-09-09T17:15:50;2.50;;;1.90;;
20830;SDS011;10576;53.556;9.868;2022-09-09T17:18:16;4.50;;;2.20;;
20830;SDS011;10576;53.556;9.868;2022-09-09T17:20:42;3.67;;;2.00;;
20830;SDS011;10576;53.556;9.868;2022-09-09T17:23:09;3.47;;;2.05;;
20830;SDS011;10576;53.556;9.868;2022-09-09T17:25:36;2.20;;;2.00;;
20830;SDS011;10576;53.556;9.868;2022-09-09T17:28:03;2.10;;;1.90;;
20830;SDS011;10576;53.556;9.868;2022-09-09T17:30:29;2.38;;;2.17;;
20830;SDS011;10576;53.556;9.868;2022-09-09T17:32:59;2.20;;;2.00;;
20830;SDS011;10576;53.556;9.868;2022-09-09T17:35:25;3.03;;;2.20;;
20830;SDS011;10576;53.556;9.868;2022-09-09T17:37:52;2.05;;;1.88;;
20830;SDS011;10576;53.556;9.868;2022-09-09T17:40:19;3.67;;;2.03;;
20830;SDS011;10576;53.556;9.868;2022-09-09T17:42:45;3.65;;;2.13;;
20830;SDS011;10576;53.556;9.868;2022-09-09T17:45:12;2.40;;;2.00;;
20830;SDS011;10576;53.556;9.868;2022-09-09T17:47:38;3.40;;;2.10;;
20830;SDS011;10576;53.556;9.868;2022-09-09T17:50:04;3.55;;;2.00;;
20830;SDS011;10576;53.556;9.868;2022-09-09T17:52:31;2.58;;;2.05;;
20830;SDS011;10576;53.556;9.868;2022-09-09T17:54:57;3.35;;;1.95;;
20830;SDS011;10576;53.556;9.868;2022-09-09T17:57:23;3.95;;;2.10;;
20830;SDS011;10576;53.556;9.868;2022-09-09T17:59:49;2.88;;;2.05;;
20830;SDS011;10576;53.556;9.868;2022-09-09T18:02:15;2.40;;;2.00;;